AUA432 LEVC-LOWW
Flight info
| Callsign | AUA432 |
|---|---|
| Flight time | 2h 29m |
| Altitude | 38000 |
| Route | ORVUS M871 PTC DCT CDP DCT CHELY DCT LUMAS DCT UNANA DCT STP DCT RAPED DCT PIGOS DCT EKSID DCT NOSTA DCT EGHIN DCT IBNAN/N0428F390 DCT ARALD DCT EVAXI DCT ABTAN ABTAN2W |
| Aircraft | A20N/M-SDE2E3FGHIJ1RWXY/LB1 |
Departure
| Time | 2026-05-05 09:31 |
|---|---|
| Airport | Valencia Airport (LEVC) |
Arrival
| Time | 2026-05-05 12:00 |
|---|---|
| Airport | Vienna International Airport (LOWW) |
| Time | Latitude | Longitude | Altitude | Speed | Heading |
|---|---|---|---|---|---|
| 2026-05-05 08:42 | 39.49025 | -0.47289 | 172 ft | 0 kts | 13° |
| 2026-05-05 09:21 | 39.49024 | -0.47289 | 172 ft | 0 kts | 13° |
| 2026-05-05 09:21 | 39.49014 | -0.47292 | 172 ft | 2 kts | 13° |
| 2026-05-05 09:21 | 39.49001 | -0.47296 | 171 ft | 2 kts | 13° |
| 2026-05-05 09:21 | 39.48986 | -0.47300 | 170 ft | 2 kts | 13° |
| 2026-05-05 09:22 | 39.48971 | -0.47305 | 170 ft | 2 kts | 27° |
| 2026-05-05 09:22 | 39.48960 | -0.47315 | 169 ft | 2 kts | 51° |
| 2026-05-05 09:22 | 39.48952 | -0.47335 | 168 ft | 2 kts | 80° |
| 2026-05-05 09:22 | 39.48952 | -0.47354 | 168 ft | 2 kts | 105° |
| 2026-05-05 09:23 | 39.48958 | -0.47372 | 168 ft | 2 kts | 121° |
| 2026-05-05 09:23 | 39.48961 | -0.47378 | 169 ft | 0 kts | 117° |
| 2026-05-05 09:25 | 39.48959 | -0.47373 | 168 ft | 2 kts | 116° |
| 2026-05-05 09:26 | 39.48949 | -0.47348 | 168 ft | 6 kts | 116° |
| 2026-05-05 09:26 | 39.48931 | -0.47302 | 168 ft | 9 kts | 117° |
| 2026-05-05 09:26 | 39.48900 | -0.47248 | 167 ft | 11 kts | 150° |
| 2026-05-05 09:26 | 39.48809 | -0.47200 | 163 ft | 9 kts | 156° |
| 2026-05-05 09:27 | 39.48736 | -0.47121 | 162 ft | 9 kts | 122° |
| 2026-05-05 09:27 | 39.48707 | -0.47045 | 162 ft | 9 kts | 116° |
| 2026-05-05 09:27 | 39.48675 | -0.46962 | 162 ft | 10 kts | 117° |
| 2026-05-05 09:27 | 39.48641 | -0.46877 | 163 ft | 10 kts | 117° |
| 2026-05-05 09:28 | 39.48609 | -0.46802 | 165 ft | 4 kts | 127° |
| 2026-05-05 09:28 | 39.48608 | -0.46801 | 165 ft | 0 kts | 127° |
| 2026-05-05 09:28 | 39.48607 | -0.46800 | 165 ft | 0 kts | 127° |
| 2026-05-05 09:29 | 39.48601 | -0.46790 | 165 ft | 2 kts | 130° |
| 2026-05-05 09:29 | 39.48576 | -0.46758 | 166 ft | 7 kts | 142° |
| 2026-05-05 09:29 | 39.48515 | -0.46740 | 165 ft | 10 kts | 190° |
| 2026-05-05 09:29 | 39.48462 | -0.46791 | 165 ft | 10 kts | 238° |
| 2026-05-05 09:30 | 39.48449 | -0.46889 | 164 ft | 12 kts | 280° |
| 2026-05-05 09:30 | 39.48517 | -0.47071 | 161 ft | 52 kts | 296° |
| 2026-05-05 09:30 | 39.48796 | -0.47804 | 183 ft | 124 kts | 296° |
| 2026-05-05 09:30 | 39.49268 | -0.49037 | 322 ft | 171 kts | 295° |
| 2026-05-05 09:31 | 39.49808 | -0.50414 | 991 ft | 175 kts | 297° |
| 2026-05-05 09:31 | 39.50361 | -0.51768 | 1855 ft | 172 kts | 298° |
| 2026-05-05 09:31 | 39.50927 | -0.53151 | 2476 ft | 179 kts | 297° |
| 2026-05-05 09:31 | 39.51530 | -0.54640 | 2929 ft | 196 kts | 297° |
| 2026-05-05 09:32 | 39.52196 | -0.56302 | 3315 ft | 219 kts | 297° |
| 2026-05-05 09:32 | 39.52924 | -0.58157 | 3832 ft | 238 kts | 293° |
| 2026-05-05 09:32 | 39.53219 | -0.60284 | 4323 ft | 256 kts | 261° |
| 2026-05-05 09:32 | 39.52422 | -0.62362 | 5076 ft | 266 kts | 226° |
| 2026-05-05 09:33 | 39.50801 | -0.63492 | 5992 ft | 272 kts | 195° |
| 2026-05-05 09:33 | 39.48912 | -0.63736 | 6931 ft | 275 kts | 182° |
| 2026-05-05 09:33 | 39.47022 | -0.63516 | 7832 ft | 278 kts | 173° |
| 2026-05-05 09:33 | 39.45142 | -0.62908 | 8736 ft | 281 kts | 165° |
| 2026-05-05 09:34 | 39.43354 | -0.61938 | 9589 ft | 286 kts | 156° |
| 2026-05-05 09:34 | 39.41650 | -0.60568 | 10405 ft | 292 kts | 148° |
| 2026-05-05 09:34 | 39.40096 | -0.58804 | 10962 ft | 308 kts | 138° |
| 2026-05-05 09:34 | 39.38746 | -0.56599 | 11641 ft | 320 kts | 128° |
| 2026-05-05 09:35 | 39.37693 | -0.54008 | 12385 ft | 329 kts | 116° |
| 2026-05-05 09:35 | 39.36760 | -0.48094 | 13656 ft | 351 kts | 97° |
| 2026-05-05 09:35 | 39.36651 | -0.44928 | 14298 ft | 357 kts | 95° |
| 2026-05-05 09:36 | 39.36567 | -0.41731 | 14960 ft | 363 kts | 95° |
| 2026-05-05 09:36 | 39.36476 | -0.38476 | 15637 ft | 367 kts | 96° |
| 2026-05-05 09:36 | 39.36371 | -0.35148 | 16300 ft | 371 kts | 96° |
| 2026-05-05 09:36 | 39.36254 | -0.31794 | 16953 ft | 376 kts | 96° |
| 2026-05-05 09:37 | 39.36132 | -0.28436 | 17570 ft | 381 kts | 96° |
| 2026-05-05 09:37 | 39.36002 | -0.25032 | 18170 ft | 385 kts | 97° |
| 2026-05-05 09:37 | 39.35868 | -0.21579 | 18778 ft | 389 kts | 97° |
| 2026-05-05 09:37 | 39.35731 | -0.18035 | 19403 ft | 393 kts | 97° |
| 2026-05-05 09:38 | 39.35592 | -0.14529 | 19987 ft | 398 kts | 97° |
| 2026-05-05 09:38 | 39.35450 | -0.10978 | 20558 ft | 402 kts | 97° |
| 2026-05-05 09:38 | 39.35305 | -0.07332 | 21157 ft | 406 kts | 97° |
| 2026-05-05 09:38 | 39.35157 | -0.03698 | 21743 ft | 409 kts | 97° |
| 2026-05-05 09:39 | 39.35009 | -0.00026 | 22306 ft | 413 kts | 97° |
| 2026-05-05 09:39 | 39.34856 | 0.03677 | 22865 ft | 417 kts | 97° |
| 2026-05-05 09:39 | 39.34700 | 0.07421 | 23398 ft | 421 kts | 97° |
| 2026-05-05 09:39 | 39.34543 | 0.11172 | 23925 ft | 424 kts | 97° |
| 2026-05-05 09:40 | 39.34382 | 0.14982 | 24427 ft | 428 kts | 97° |
| 2026-05-05 09:40 | 39.34219 | 0.18824 | 24922 ft | 432 kts | 97° |
| 2026-05-05 09:40 | 39.34053 | 0.22707 | 25386 ft | 437 kts | 97° |
| 2026-05-05 09:40 | 39.33885 | 0.26626 | 25852 ft | 441 kts | 98° |
| 2026-05-05 09:41 | 39.33712 | 0.30580 | 26307 ft | 444 kts | 97° |
| 2026-05-05 09:41 | 39.33538 | 0.34580 | 26750 ft | 448 kts | 97° |
| 2026-05-05 09:41 | 39.33361 | 0.38565 | 27291 ft | 449 kts | 98° |
| 2026-05-05 09:41 | 39.33184 | 0.42568 | 27778 ft | 450 kts | 98° |
| 2026-05-05 09:42 | 39.33080 | 0.46619 | 28188 ft | 456 kts | 94° |
| 2026-05-05 09:42 | 39.33185 | 0.50755 | 28574 ft | 462 kts | 89° |
| 2026-05-05 09:42 | 39.33499 | 0.54836 | 28954 ft | 466 kts | 86° |
| 2026-05-05 09:42 | 39.33810 | 0.59000 | 29323 ft | 468 kts | 89° |
| 2026-05-05 09:43 | 39.34044 | 0.63215 | 29670 ft | 471 kts | 89° |
| 2026-05-05 09:43 | 39.34251 | 0.67418 | 30007 ft | 474 kts | 90° |
| 2026-05-05 09:43 | 39.34446 | 0.71673 | 30337 ft | 476 kts | 90° |
| 2026-05-05 09:43 | 39.34634 | 0.75966 | 30673 ft | 478 kts | 91° |
| 2026-05-05 09:44 | 39.34817 | 0.80231 | 30980 ft | 480 kts | 91° |
| 2026-05-05 09:44 | 39.35001 | 0.84555 | 31299 ft | 482 kts | 91° |
| 2026-05-05 09:44 | 39.35183 | 0.88872 | 31614 ft | 484 kts | 91° |
| 2026-05-05 09:44 | 39.35361 | 0.93162 | 31896 ft | 486 kts | 90° |
| 2026-05-05 09:45 | 39.35544 | 0.97533 | 32179 ft | 488 kts | 91° |
| 2026-05-05 09:45 | 39.35723 | 1.01884 | 32461 ft | 490 kts | 90° |
| 2026-05-05 09:45 | 39.35901 | 1.06270 | 32730 ft | 492 kts | 91° |
| 2026-05-05 09:45 | 39.36081 | 1.10703 | 32995 ft | 494 kts | 91° |
| 2026-05-05 09:46 | 39.36257 | 1.15088 | 33268 ft | 495 kts | 91° |
| 2026-05-05 09:46 | 39.36436 | 1.19561 | 33567 ft | 495 kts | 91° |
| 2026-05-05 09:46 | 39.36607 | 1.23938 | 33902 ft | 495 kts | 91° |
| 2026-05-05 09:46 | 39.36778 | 1.28371 | 34241 ft | 494 kts | 91° |
| 2026-05-05 09:47 | 39.36948 | 1.32798 | 34528 ft | 493 kts | 91° |
| 2026-05-05 09:47 | 39.37115 | 1.37231 | 34822 ft | 492 kts | 91° |
| 2026-05-05 09:47 | 39.37279 | 1.41573 | 35098 ft | 491 kts | 91° |
| 2026-05-05 09:47 | 39.37446 | 1.45993 | 35359 ft | 491 kts | 91° |
| 2026-05-05 09:48 | 39.37611 | 1.50407 | 35610 ft | 490 kts | 91° |
| 2026-05-05 09:48 | 39.37772 | 1.54777 | 35854 ft | 490 kts | 91° |
| 2026-05-05 09:48 | 39.37930 | 1.59128 | 36094 ft | 489 kts | 91° |
| 2026-05-05 09:48 | 39.38086 | 1.63492 | 36374 ft | 489 kts | 91° |
| 2026-05-05 09:49 | 39.38244 | 1.67907 | 36661 ft | 488 kts | 91° |
| 2026-05-05 09:49 | 39.38396 | 1.72249 | 36923 ft | 488 kts | 91° |
| 2026-05-05 09:49 | 39.38546 | 1.76607 | 37115 ft | 489 kts | 91° |
| 2026-05-05 09:49 | 39.38698 | 1.81035 | 37308 ft | 490 kts | 91° |
| 2026-05-05 09:50 | 39.38845 | 1.85382 | 37489 ft | 491 kts | 91° |
| 2026-05-05 09:50 | 39.38993 | 1.89798 | 37671 ft | 492 kts | 91° |
| 2026-05-05 09:50 | 39.39140 | 1.94218 | 37864 ft | 492 kts | 91° |
| 2026-05-05 09:50 | 39.39282 | 1.98582 | 37926 ft | 493 kts | 91° |
| 2026-05-05 09:51 | 39.39567 | 2.07412 | 37935 ft | 493 kts | 91° |
| 2026-05-05 09:51 | 39.39845 | 2.16246 | 37936 ft | 493 kts | 91° |
| 2026-05-05 09:52 | 39.40115 | 2.25054 | 37936 ft | 493 kts | 91° |
| 2026-05-05 09:52 | 39.40377 | 2.33885 | 37935 ft | 493 kts | 91° |
| 2026-05-05 09:53 | 39.40636 | 2.42713 | 37936 ft | 492 kts | 91° |
| 2026-05-05 09:53 | 39.40890 | 2.51525 | 37937 ft | 492 kts | 91° |
| 2026-05-05 09:54 | 39.41132 | 2.60298 | 37942 ft | 493 kts | 91° |
| 2026-05-05 09:54 | 39.41372 | 2.69111 | 37941 ft | 492 kts | 92° |
| 2026-05-05 09:55 | 39.41604 | 2.77978 | 37946 ft | 492 kts | 92° |
| 2026-05-05 09:55 | 39.41826 | 2.86734 | 37951 ft | 492 kts | 92° |
| 2026-05-05 09:56 | 39.42043 | 2.95590 | 37947 ft | 492 kts | 92° |
| 2026-05-05 09:56 | 39.42250 | 3.04377 | 37947 ft | 492 kts | 92° |
| 2026-05-05 09:57 | 39.42555 | 3.13164 | 37939 ft | 494 kts | 85° |
| 2026-05-05 09:57 | 39.43275 | 3.17527 | 37945 ft | 497 kts | 73° |
| 2026-05-05 09:57 | 39.44562 | 3.21653 | 37943 ft | 497 kts | 61° |
| 2026-05-05 09:58 | 39.46369 | 3.25396 | 37945 ft | 495 kts | 50° |
| 2026-05-05 09:58 | 39.48664 | 3.28711 | 37942 ft | 491 kts | 38° |
| 2026-05-05 09:58 | 39.51308 | 3.31419 | 37939 ft | 484 kts | 27° |
| 2026-05-05 09:58 | 39.54205 | 3.33534 | 37944 ft | 479 kts | 20° |
| 2026-05-05 09:59 | 39.60240 | 3.37265 | 37934 ft | 478 kts | 19° |
| 2026-05-05 09:59 | 39.66181 | 3.41060 | 37927 ft | 479 kts | 20° |
| 2026-05-05 10:00 | 39.72070 | 3.45123 | 37929 ft | 482 kts | 24° |
| 2026-05-05 10:00 | 39.77864 | 3.49531 | 37936 ft | 483 kts | 25° |
| 2026-05-05 10:01 | 39.83627 | 3.53946 | 37938 ft | 483 kts | 25° |
| 2026-05-05 10:01 | 39.89399 | 3.58364 | 37930 ft | 482 kts | 25° |
| 2026-05-05 10:02 | 39.95175 | 3.62784 | 37931 ft | 482 kts | 24° |
| 2026-05-05 10:02 | 40.00973 | 3.67227 | 37930 ft | 483 kts | 25° |
| 2026-05-05 10:03 | 40.06711 | 3.71633 | 37929 ft | 483 kts | 25° |
| 2026-05-05 10:03 | 40.12507 | 3.76089 | 37929 ft | 484 kts | 25° |
| 2026-05-05 10:04 | 40.18301 | 3.80558 | 37931 ft | 484 kts | 25° |
| 2026-05-05 10:04 | 40.24081 | 3.85025 | 37933 ft | 484 kts | 25° |
| 2026-05-05 10:05 | 40.29885 | 3.89516 | 37929 ft | 484 kts | 25° |
| 2026-05-05 10:05 | 40.35646 | 3.93987 | 37938 ft | 483 kts | 25° |
| 2026-05-05 10:06 | 40.41441 | 3.98491 | 37933 ft | 484 kts | 25° |
| 2026-05-05 10:06 | 40.47235 | 4.03000 | 37939 ft | 484 kts | 25° |
| 2026-05-05 10:07 | 40.52993 | 4.07495 | 37944 ft | 484 kts | 25° |
| 2026-05-05 10:07 | 40.58785 | 4.12023 | 37935 ft | 484 kts | 25° |
| 2026-05-05 10:08 | 40.64574 | 4.16560 | 37935 ft | 485 kts | 25° |
| 2026-05-05 10:08 | 40.70330 | 4.21080 | 37938 ft | 484 kts | 25° |
| 2026-05-05 10:09 | 40.76126 | 4.25639 | 37939 ft | 485 kts | 26° |
| 2026-05-05 10:09 | 40.81914 | 4.30205 | 37941 ft | 485 kts | 25° |
| 2026-05-05 10:10 | 40.87691 | 4.34769 | 37949 ft | 486 kts | 25° |
| 2026-05-05 10:10 | 40.93479 | 4.39356 | 37939 ft | 485 kts | 25° |
| 2026-05-05 10:11 | 40.99260 | 4.43942 | 37946 ft | 486 kts | 26° |
| 2026-05-05 10:11 | 41.05161 | 4.48107 | 37949 ft | 480 kts | 18° |
| 2026-05-05 10:12 | 41.11333 | 4.51154 | 37945 ft | 472 kts | 9° |
| 2026-05-05 10:12 | 41.17707 | 4.53096 | 37948 ft | 465 kts | 2° |
| 2026-05-05 10:13 | 41.24057 | 4.54593 | 37940 ft | 465 kts | 2° |
| 2026-05-05 10:13 | 41.30408 | 4.56105 | 37943 ft | 465 kts | 2° |
| 2026-05-05 10:14 | 41.36787 | 4.57659 | 37943 ft | 466 kts | 3° |
| 2026-05-05 10:14 | 41.43200 | 4.59231 | 37943 ft | 466 kts | 3° |
| 2026-05-05 10:15 | 41.49571 | 4.60797 | 37949 ft | 467 kts | 3° |
| 2026-05-05 10:15 | 41.55913 | 4.62362 | 37945 ft | 467 kts | 3° |
| 2026-05-05 10:16 | 41.62300 | 4.63938 | 37946 ft | 467 kts | 3° |
| 2026-05-05 10:16 | 41.68669 | 4.65921 | 37933 ft | 474 kts | 13° |
| 2026-05-05 10:17 | 41.74671 | 4.69647 | 37944 ft | 484 kts | 28° |
| 2026-05-05 10:17 | 41.79998 | 4.75203 | 37954 ft | 490 kts | 41° |
| 2026-05-05 10:18 | 41.84847 | 4.81676 | 37958 ft | 490 kts | 43° |
| 2026-05-05 10:18 | 41.89632 | 4.88136 | 37963 ft | 490 kts | 43° |
| 2026-05-05 10:19 | 41.94466 | 4.94591 | 37953 ft | 490 kts | 43° |
| 2026-05-05 10:19 | 41.99292 | 5.01020 | 37964 ft | 490 kts | 43° |
| 2026-05-05 10:20 | 42.04138 | 5.07483 | 37953 ft | 490 kts | 42° |
| 2026-05-05 10:20 | 42.08961 | 5.13925 | 37955 ft | 489 kts | 43° |
| 2026-05-05 10:21 | 42.13770 | 5.20365 | 37962 ft | 490 kts | 43° |
| 2026-05-05 10:21 | 42.18601 | 5.26845 | 37942 ft | 490 kts | 43° |
| 2026-05-05 10:22 | 42.23421 | 5.33329 | 37955 ft | 489 kts | 43° |
| 2026-05-05 10:22 | 42.28205 | 5.39782 | 37951 ft | 489 kts | 43° |
| 2026-05-05 10:23 | 42.32997 | 5.46260 | 37955 ft | 489 kts | 43° |
| 2026-05-05 10:23 | 42.37772 | 5.52727 | 37943 ft | 488 kts | 43° |
| 2026-05-05 10:24 | 42.42554 | 5.59222 | 37947 ft | 487 kts | 43° |
| 2026-05-05 10:24 | 42.47305 | 5.65686 | 37931 ft | 487 kts | 44° |
| 2026-05-05 10:25 | 42.52074 | 5.72188 | 37947 ft | 487 kts | 44° |
| 2026-05-05 10:25 | 42.56840 | 5.78704 | 37936 ft | 486 kts | 44° |
| 2026-05-05 10:26 | 42.61597 | 5.85222 | 37938 ft | 486 kts | 44° |
| 2026-05-05 10:26 | 42.66301 | 5.91684 | 37942 ft | 485 kts | 44° |
| 2026-05-05 10:27 | 42.71042 | 5.98212 | 37934 ft | 484 kts | 44° |
| 2026-05-05 10:27 | 42.75754 | 6.04717 | 37928 ft | 484 kts | 44° |
| 2026-05-05 10:28 | 42.80445 | 6.11209 | 37925 ft | 483 kts | 44° |
| 2026-05-05 10:28 | 42.85157 | 6.17664 | 37924 ft | 482 kts | 41° |
| 2026-05-05 10:29 | 42.90197 | 6.23625 | 37935 ft | 481 kts | 38° |
| 2026-05-05 10:29 | 42.95360 | 6.29492 | 37942 ft | 482 kts | 38° |
| 2026-05-05 10:30 | 43.00476 | 6.35352 | 37946 ft | 481 kts | 38° |
| 2026-05-05 10:30 | 43.05550 | 6.41193 | 37943 ft | 481 kts | 38° |
| 2026-05-05 10:31 | 43.10642 | 6.47075 | 37933 ft | 481 kts | 38° |
| 2026-05-05 10:31 | 43.15764 | 6.53005 | 37941 ft | 481 kts | 38° |
| 2026-05-05 10:32 | 43.20746 | 6.59135 | 37938 ft | 482 kts | 44° |
| 2026-05-05 10:32 | 43.25126 | 6.66052 | 37936 ft | 483 kts | 53° |
| 2026-05-05 10:33 | 43.29044 | 6.73485 | 37939 ft | 483 kts | 54° |
| 2026-05-05 10:33 | 43.32933 | 6.80959 | 37937 ft | 482 kts | 54° |
| 2026-05-05 10:34 | 43.36843 | 6.88403 | 37943 ft | 482 kts | 54° |
| 2026-05-05 10:34 | 43.40778 | 6.95886 | 37935 ft | 482 kts | 54° |
| 2026-05-05 10:35 | 43.44675 | 7.03324 | 37932 ft | 482 kts | 54° |
| 2026-05-05 10:35 | 43.48570 | 7.10789 | 37940 ft | 481 kts | 54° |
| 2026-05-05 10:36 | 43.52479 | 7.18296 | 37948 ft | 481 kts | 54° |
| 2026-05-05 10:36 | 43.56361 | 7.25776 | 37944 ft | 481 kts | 54° |
| 2026-05-05 10:37 | 43.60210 | 7.33213 | 37950 ft | 480 kts | 54° |
| 2026-05-05 10:37 | 43.64092 | 7.40721 | 37946 ft | 479 kts | 54° |
| 2026-05-05 10:38 | 43.67954 | 7.48208 | 37941 ft | 478 kts | 54° |
| 2026-05-05 10:38 | 43.71780 | 7.55653 | 37942 ft | 478 kts | 54° |
| 2026-05-05 10:39 | 43.75628 | 7.63162 | 37939 ft | 478 kts | 54° |
| 2026-05-05 10:39 | 43.79449 | 7.70631 | 37952 ft | 477 kts | 54° |
| 2026-05-05 10:40 | 43.83279 | 7.78139 | 37952 ft | 476 kts | 54° |
| 2026-05-05 10:40 | 43.87083 | 7.85569 | 37954 ft | 475 kts | 54° |
| 2026-05-05 10:41 | 43.90899 | 7.93048 | 37958 ft | 474 kts | 54° |
| 2026-05-05 10:41 | 43.94692 | 8.00513 | 37964 ft | 474 kts | 54° |
| 2026-05-05 10:42 | 44.00360 | 8.11704 | 37951 ft | 474 kts | 54° |
| 2026-05-05 10:43 | 44.04162 | 8.19234 | 37952 ft | 474 kts | 54° |
| 2026-05-05 10:43 | 44.08165 | 8.26491 | 37946 ft | 473 kts | 49° |
| 2026-05-05 10:44 | 44.12309 | 8.33474 | 37954 ft | 474 kts | 49° |
| 2026-05-05 10:44 | 44.16551 | 8.40637 | 37957 ft | 474 kts | 49° |
| 2026-05-05 10:45 | 44.20722 | 8.47724 | 37950 ft | 475 kts | 49° |
| 2026-05-05 10:45 | 44.24897 | 8.54842 | 37952 ft | 476 kts | 49° |
| 2026-05-05 10:46 | 44.29071 | 8.61976 | 37954 ft | 475 kts | 50° |
| 2026-05-05 10:46 | 44.33234 | 8.69113 | 37954 ft | 475 kts | 50° |
| 2026-05-05 10:47 | 44.37382 | 8.76242 | 37956 ft | 476 kts | 50° |
| 2026-05-05 10:47 | 44.41545 | 8.83417 | 37955 ft | 475 kts | 50° |
| 2026-05-05 10:48 | 44.45725 | 8.90633 | 37952 ft | 476 kts | 50° |
| 2026-05-05 10:48 | 44.49861 | 8.97795 | 37955 ft | 475 kts | 50° |
| 2026-05-05 10:49 | 44.54022 | 9.05021 | 37952 ft | 475 kts | 50° |
| 2026-05-05 10:49 | 44.58159 | 9.12219 | 37953 ft | 475 kts | 50° |
| 2026-05-05 10:50 | 44.62284 | 9.19418 | 37954 ft | 475 kts | 50° |
| 2026-05-05 10:50 | 44.66384 | 9.26589 | 37950 ft | 474 kts | 50° |
| 2026-05-05 10:51 | 44.70494 | 9.33795 | 37950 ft | 473 kts | 50° |
| 2026-05-05 10:51 | 44.74611 | 9.41033 | 37953 ft | 473 kts | 50° |
| 2026-05-05 10:52 | 44.78690 | 9.48224 | 37957 ft | 473 kts | 50° |
| 2026-05-05 10:52 | 44.82789 | 9.55461 | 37965 ft | 473 kts | 50° |
| 2026-05-05 10:53 | 44.86860 | 9.62675 | 37972 ft | 472 kts | 50° |
| 2026-05-05 10:53 | 44.90953 | 9.69942 | 37971 ft | 472 kts | 51° |
| 2026-05-05 10:54 | 44.95000 | 9.77155 | 38031 ft | 473 kts | 51° |
| 2026-05-05 10:54 | 44.97035 | 9.80782 | 38337 ft | 470 kts | 51° |
| 2026-05-05 10:54 | 44.99067 | 9.84412 | 38646 ft | 468 kts | 51° |
| 2026-05-05 10:54 | 45.01081 | 9.88016 | 38866 ft | 467 kts | 51° |
| 2026-05-05 10:55 | 45.03081 | 9.91598 | 38959 ft | 468 kts | 51° |
| 2026-05-05 10:55 | 45.07118 | 9.98844 | 38959 ft | 468 kts | 51° |
| 2026-05-05 10:56 | 45.11108 | 10.06026 | 38962 ft | 467 kts | 51° |
| 2026-05-05 10:56 | 45.15049 | 10.13343 | 38955 ft | 466 kts | 53° |
| 2026-05-05 10:57 | 45.18853 | 10.20752 | 38959 ft | 466 kts | 53° |
| 2026-05-05 10:57 | 45.22664 | 10.28181 | 38962 ft | 466 kts | 52° |
| 2026-05-05 10:58 | 45.26463 | 10.35579 | 38959 ft | 465 kts | 52° |
| 2026-05-05 10:58 | 45.30259 | 10.42985 | 38962 ft | 465 kts | 52° |
| 2026-05-05 10:59 | 45.34046 | 10.50386 | 38963 ft | 464 kts | 53° |
| 2026-05-05 10:59 | 45.37813 | 10.57770 | 38965 ft | 463 kts | 52° |
| 2026-05-05 11:00 | 45.41601 | 10.65217 | 38969 ft | 463 kts | 53° |
| 2026-05-05 11:00 | 45.45359 | 10.72619 | 38967 ft | 462 kts | 53° |
| 2026-05-05 11:01 | 45.48995 | 10.79803 | 38972 ft | 461 kts | 53° |
| 2026-05-05 11:01 | 45.52736 | 10.87211 | 38980 ft | 461 kts | 53° |
| 2026-05-05 11:02 | 45.56419 | 10.94520 | 38975 ft | 461 kts | 53° |
| 2026-05-05 11:02 | 45.60133 | 11.01914 | 38980 ft | 461 kts | 53° |
| 2026-05-05 11:03 | 45.63871 | 11.09373 | 38980 ft | 460 kts | 53° |
| 2026-05-05 11:03 | 45.67559 | 11.16756 | 38978 ft | 458 kts | 53° |
| 2026-05-05 11:04 | 45.71264 | 11.24189 | 38981 ft | 458 kts | 53° |
| 2026-05-05 11:04 | 45.74944 | 11.31593 | 38982 ft | 457 kts | 53° |
| 2026-05-05 11:05 | 45.78599 | 11.38961 | 38982 ft | 455 kts | 53° |
| 2026-05-05 11:05 | 45.82249 | 11.46340 | 38982 ft | 456 kts | 53° |
| 2026-05-05 11:06 | 45.85893 | 11.53729 | 38983 ft | 456 kts | 53° |
| 2026-05-05 11:06 | 45.89554 | 11.61172 | 38985 ft | 455 kts | 53° |
| 2026-05-05 11:07 | 45.93201 | 11.68603 | 38988 ft | 455 kts | 53° |
| 2026-05-05 11:07 | 45.96835 | 11.76032 | 38992 ft | 453 kts | 53° |
| 2026-05-05 11:08 | 46.00443 | 11.83426 | 38995 ft | 455 kts | 53° |
| 2026-05-05 11:08 | 46.04085 | 11.90907 | 38990 ft | 454 kts | 53° |
| 2026-05-05 11:09 | 46.07698 | 11.98344 | 39003 ft | 454 kts | 54° |
| 2026-05-05 11:09 | 46.11304 | 12.05791 | 39004 ft | 453 kts | 53° |
| 2026-05-05 11:10 | 46.14900 | 12.13237 | 39003 ft | 453 kts | 54° |
| 2026-05-05 11:10 | 46.18485 | 12.20680 | 39011 ft | 453 kts | 54° |
| 2026-05-05 11:11 | 46.22076 | 12.28156 | 39010 ft | 452 kts | 54° |
| 2026-05-05 11:11 | 46.25648 | 12.35612 | 39013 ft | 452 kts | 54° |
| 2026-05-05 11:12 | 46.29199 | 12.43047 | 39018 ft | 451 kts | 54° |
| 2026-05-05 11:12 | 46.32753 | 12.50503 | 39018 ft | 451 kts | 54° |
| 2026-05-05 11:13 | 46.36299 | 12.57963 | 39006 ft | 451 kts | 54° |
| 2026-05-05 11:13 | 46.39852 | 12.65460 | 39017 ft | 451 kts | 55° |
| 2026-05-05 11:14 | 46.43399 | 12.72963 | 38999 ft | 451 kts | 55° |
| 2026-05-05 11:14 | 46.46920 | 12.80434 | 39010 ft | 451 kts | 55° |
| 2026-05-05 11:15 | 46.50484 | 12.88011 | 39005 ft | 451 kts | 55° |
| 2026-05-05 11:15 | 46.54010 | 12.95533 | 39000 ft | 452 kts | 55° |
| 2026-05-05 11:16 | 46.57539 | 13.03079 | 38986 ft | 451 kts | 55° |
| 2026-05-05 11:16 | 46.61056 | 13.10627 | 38985 ft | 452 kts | 55° |
| 2026-05-05 11:17 | 46.64583 | 13.18216 | 38984 ft | 452 kts | 55° |
| 2026-05-05 11:17 | 46.68040 | 13.25779 | 38976 ft | 452 kts | 58° |
| 2026-05-05 11:18 | 46.71108 | 13.33800 | 38986 ft | 452 kts | 62° |
| 2026-05-05 11:18 | 46.74014 | 13.41865 | 39002 ft | 452 kts | 62° |
| 2026-05-05 11:19 | 46.76946 | 13.49985 | 38999 ft | 452 kts | 62° |
| 2026-05-05 11:19 | 46.79853 | 13.58145 | 38986 ft | 452 kts | 62° |
| 2026-05-05 11:20 | 46.82713 | 13.66324 | 38989 ft | 452 kts | 63° |
| 2026-05-05 11:20 | 46.85549 | 13.74455 | 38982 ft | 452 kts | 63° |
| 2026-05-05 11:21 | 46.88412 | 13.82683 | 38976 ft | 453 kts | 63° |
| 2026-05-05 11:21 | 46.91267 | 13.90906 | 38980 ft | 453 kts | 63° |
| 2026-05-05 11:22 | 46.94110 | 13.99127 | 38977 ft | 453 kts | 63° |
| 2026-05-05 11:22 | 46.96937 | 14.07324 | 38976 ft | 452 kts | 63° |
| 2026-05-05 11:23 | 46.99752 | 14.15509 | 38978 ft | 452 kts | 63° |
| 2026-05-05 11:23 | 47.02580 | 14.23763 | 38959 ft | 452 kts | 63° |
| 2026-05-05 11:23 | 47.03987 | 14.27881 | 38702 ft | 451 kts | 63° |
| 2026-05-05 11:24 | 47.05376 | 14.31951 | 38415 ft | 448 kts | 63° |
| 2026-05-05 11:24 | 47.06771 | 14.36047 | 38076 ft | 445 kts | 63° |
| 2026-05-05 11:24 | 47.08145 | 14.40086 | 37653 ft | 442 kts | 63° |
| 2026-05-05 11:24 | 47.09494 | 14.44091 | 37056 ft | 442 kts | 64° |
| 2026-05-05 11:25 | 47.10718 | 14.48203 | 36513 ft | 441 kts | 68° |
| 2026-05-05 11:25 | 47.11776 | 14.52457 | 35960 ft | 443 kts | 72° |
| 2026-05-05 11:25 | 47.12635 | 14.56749 | 35355 ft | 446 kts | 75° |
| 2026-05-05 11:25 | 47.13400 | 14.61157 | 34719 ft | 448 kts | 76° |
| 2026-05-05 11:26 | 47.14149 | 14.65615 | 34009 ft | 449 kts | 77° |
| 2026-05-05 11:26 | 47.14898 | 14.70059 | 33302 ft | 450 kts | 77° |
| 2026-05-05 11:26 | 47.15652 | 14.74494 | 32646 ft | 450 kts | 76° |
| 2026-05-05 11:26 | 47.16403 | 14.78891 | 32207 ft | 445 kts | 76° |
| 2026-05-05 11:27 | 47.17157 | 14.83308 | 31748 ft | 440 kts | 76° |
| 2026-05-05 11:27 | 47.17891 | 14.87617 | 31305 ft | 436 kts | 76° |
| 2026-05-05 11:27 | 47.18615 | 14.91883 | 30878 ft | 431 kts | 76° |
| 2026-05-05 11:27 | 47.19338 | 14.96160 | 30453 ft | 427 kts | 76° |
| 2026-05-05 11:28 | 47.20048 | 15.00372 | 30064 ft | 424 kts | 76° |
| 2026-05-05 11:28 | 47.20757 | 15.04586 | 29668 ft | 422 kts | 76° |
| 2026-05-05 11:28 | 47.21450 | 15.08710 | 29272 ft | 419 kts | 76° |
| 2026-05-05 11:28 | 47.22149 | 15.12884 | 28866 ft | 417 kts | 76° |
| 2026-05-05 11:29 | 47.22834 | 15.16985 | 28471 ft | 414 kts | 76° |
| 2026-05-05 11:29 | 47.23510 | 15.21040 | 28051 ft | 411 kts | 76° |
| 2026-05-05 11:29 | 47.24194 | 15.25158 | 27632 ft | 408 kts | 76° |
| 2026-05-05 11:29 | 47.24863 | 15.29194 | 27215 ft | 405 kts | 76° |
| 2026-05-05 11:30 | 47.25518 | 15.33151 | 26804 ft | 402 kts | 76° |
| 2026-05-05 11:30 | 47.26182 | 15.37170 | 26380 ft | 399 kts | 76° |
| 2026-05-05 11:30 | 47.26828 | 15.41095 | 25970 ft | 396 kts | 76° |
| 2026-05-05 11:30 | 47.27470 | 15.45008 | 25570 ft | 393 kts | 76° |
| 2026-05-05 11:31 | 47.28104 | 15.48872 | 25162 ft | 390 kts | 76° |
| 2026-05-05 11:31 | 47.28740 | 15.52766 | 24749 ft | 387 kts | 76° |
| 2026-05-05 11:31 | 47.29365 | 15.56597 | 24365 ft | 383 kts | 76° |
| 2026-05-05 11:31 | 47.29975 | 15.60347 | 24146 ft | 382 kts | 76° |
| 2026-05-05 11:32 | 47.30593 | 15.64149 | 23753 ft | 380 kts | 76° |
| 2026-05-05 11:32 | 47.31206 | 15.67914 | 23453 ft | 379 kts | 77° |
| 2026-05-05 11:32 | 47.31814 | 15.71679 | 23197 ft | 378 kts | 77° |
| 2026-05-05 11:32 | 47.32420 | 15.75450 | 22928 ft | 377 kts | 77° |
| 2026-05-05 11:33 | 47.33020 | 15.79180 | 22662 ft | 375 kts | 77° |
| 2026-05-05 11:33 | 47.33618 | 15.82911 | 22393 ft | 373 kts | 77° |
| 2026-05-05 11:33 | 47.34207 | 15.86589 | 21853 ft | 374 kts | 77° |
| 2026-05-05 11:33 | 47.34811 | 15.90369 | 20996 ft | 383 kts | 77° |
| 2026-05-05 11:34 | 47.35418 | 15.94181 | 20364 ft | 384 kts | 77° |
| 2026-05-05 11:34 | 47.36033 | 15.97962 | 19862 ft | 381 kts | 75° |
| 2026-05-05 11:34 | 47.37160 | 16.01482 | 19277 ft | 381 kts | 51° |
| 2026-05-05 11:34 | 47.39164 | 16.03987 | 18696 ft | 378 kts | 25° |
| 2026-05-05 11:35 | 47.41655 | 16.05025 | 18216 ft | 371 kts | 4° |
| 2026-05-05 11:35 | 47.44194 | 16.05246 | 17783 ft | 367 kts | 360° |
| 2026-05-05 11:35 | 47.46757 | 16.05363 | 17347 ft | 364 kts | 0° |
| 2026-05-05 11:35 | 47.49266 | 16.05528 | 16902 ft | 361 kts | 1° |
| 2026-05-05 11:36 | 47.51751 | 16.05751 | 16469 ft | 359 kts | 2° |
| 2026-05-05 11:36 | 47.54207 | 16.06018 | 16035 ft | 356 kts | 2° |
| 2026-05-05 11:36 | 47.56599 | 16.06304 | 15620 ft | 354 kts | 3° |
| 2026-05-05 11:36 | 47.59063 | 16.06616 | 15196 ft | 351 kts | 3° |
| 2026-05-05 11:37 | 47.61484 | 16.06933 | 14776 ft | 349 kts | 3° |
| 2026-05-05 11:37 | 47.63878 | 16.07250 | 14353 ft | 346 kts | 3° |
| 2026-05-05 11:37 | 47.66246 | 16.07568 | 13959 ft | 343 kts | 3° |
| 2026-05-05 11:37 | 47.68620 | 16.07888 | 13542 ft | 341 kts | 3° |
| 2026-05-05 11:38 | 47.70992 | 16.08209 | 13136 ft | 338 kts | 3° |
| 2026-05-05 11:38 | 47.73328 | 16.08525 | 12748 ft | 336 kts | 4° |
| 2026-05-05 11:38 | 47.75635 | 16.08839 | 12365 ft | 334 kts | 4° |
| 2026-05-05 11:38 | 47.77948 | 16.09154 | 11965 ft | 332 kts | 3° |
| 2026-05-05 11:39 | 47.80241 | 16.09465 | 11572 ft | 330 kts | 3° |
| 2026-05-05 11:39 | 47.82507 | 16.09773 | 11187 ft | 328 kts | 4° |
| 2026-05-05 11:39 | 47.84784 | 16.10083 | 10796 ft | 325 kts | 3° |
| 2026-05-05 11:39 | 47.87031 | 16.10388 | 10414 ft | 323 kts | 4° |
| 2026-05-05 11:40 | 47.89260 | 16.10691 | 10053 ft | 320 kts | 4° |
| 2026-05-05 11:40 | 47.91425 | 16.10987 | 9903 ft | 309 kts | 4° |
| 2026-05-05 11:40 | 47.93543 | 16.11278 | 9555 ft | 300 kts | 4° |
| 2026-05-05 11:40 | 47.95607 | 16.11560 | 9204 ft | 296 kts | 4° |
| 2026-05-05 11:41 | 47.97598 | 16.11832 | 8855 ft | 294 kts | 4° |
| 2026-05-05 11:41 | 47.99639 | 16.12109 | 8513 ft | 293 kts | 4° |
| 2026-05-05 11:41 | 48.01669 | 16.12386 | 8172 ft | 292 kts | 4° |
| 2026-05-05 11:41 | 48.03693 | 16.12665 | 7836 ft | 291 kts | 4° |
| 2026-05-05 11:42 | 48.05687 | 16.12940 | 7499 ft | 290 kts | 4° |
| 2026-05-05 11:42 | 48.07706 | 16.13218 | 7162 ft | 289 kts | 4° |
| 2026-05-05 11:42 | 48.09695 | 16.13491 | 6832 ft | 287 kts | 4° |
| 2026-05-05 11:42 | 48.11682 | 16.13765 | 6503 ft | 286 kts | 4° |
| 2026-05-05 11:43 | 48.13650 | 16.14036 | 6175 ft | 281 kts | 4° |
| 2026-05-05 11:43 | 48.15556 | 16.14450 | 5842 ft | 271 kts | 12° |
| 2026-05-05 11:43 | 48.17331 | 16.15263 | 5536 ft | 260 kts | 21° |
| 2026-05-05 11:43 | 48.18972 | 16.16259 | 5254 ft | 253 kts | 23° |
| 2026-05-05 11:44 | 48.20562 | 16.17279 | 5055 ft | 245 kts | 27° |
| 2026-05-05 11:44 | 48.21833 | 16.18818 | 4903 ft | 230 kts | 60° |
| 2026-05-05 11:44 | 48.22313 | 16.20895 | 4772 ft | 212 kts | 94° |
| 2026-05-05 11:44 | 48.22068 | 16.22982 | 4664 ft | 202 kts | 114° |
| 2026-05-05 11:45 | 48.21546 | 16.24912 | 4546 ft | 200 kts | 117° |
| 2026-05-05 11:45 | 48.20983 | 16.26778 | 4371 ft | 194 kts | 119° |
| 2026-05-05 11:45 | 48.20406 | 16.28590 | 4112 ft | 193 kts | 120° |
| 2026-05-05 11:45 | 48.19821 | 16.30384 | 3856 ft | 192 kts | 121° |
| 2026-05-05 11:46 | 48.19245 | 16.32135 | 3604 ft | 190 kts | 121° |
| 2026-05-05 11:46 | 48.18700 | 16.33787 | 3370 ft | 189 kts | 121° |
| 2026-05-05 11:46 | 48.18142 | 16.35476 | 3129 ft | 188 kts | 121° |
| 2026-05-05 11:46 | 48.17560 | 16.37242 | 2878 ft | 186 kts | 121° |
| 2026-05-05 11:47 | 48.16996 | 16.38961 | 2633 ft | 185 kts | 122° |
| 2026-05-05 11:47 | 48.16441 | 16.40653 | 2455 ft | 173 kts | 120° |
| 2026-05-05 11:47 | 48.15932 | 16.42215 | 2208 ft | 161 kts | 122° |
| 2026-05-05 11:47 | 48.15469 | 16.43628 | 1996 ft | 148 kts | 123° |
| 2026-05-05 11:48 | 48.14630 | 16.46175 | 1602 ft | 132 kts | 121° |
| 2026-05-05 11:48 | 48.14219 | 16.47420 | 1440 ft | 132 kts | 120° |
| 2026-05-05 11:48 | 48.13811 | 16.48671 | 1276 ft | 132 kts | 121° |
| 2026-05-05 11:49 | 48.13410 | 16.49896 | 1078 ft | 134 kts | 122° |
| 2026-05-05 11:49 | 48.12998 | 16.51131 | 933 ft | 132 kts | 121° |
| 2026-05-05 11:49 | 48.12591 | 16.52374 | 764 ft | 131 kts | 117° |
| 2026-05-05 11:49 | 48.12201 | 16.53596 | 601 ft | 130 kts | 118° |
| 2026-05-05 11:50 | 48.11835 | 16.54766 | 706 ft | 127 kts | 115° |
| 2026-05-05 11:50 | 48.11477 | 16.55948 | 1086 ft | 126 kts | 118° |
| 2026-05-05 11:50 | 48.11114 | 16.57171 | 1373 ft | 134 kts | 116° |
| 2026-05-05 11:50 | 48.10781 | 16.58485 | 1791 ft | 138 kts | 107° |
| 2026-05-05 11:51 | 48.10970 | 16.59943 | 2165 ft | 159 kts | 60° |
| 2026-05-05 11:51 | 48.11795 | 16.61147 | 2439 ft | 174 kts | 43° |
| 2026-05-05 11:51 | 48.12508 | 16.61959 | 2613 ft | 186 kts | 40° |
| 2026-05-05 11:52 | 48.14743 | 16.64401 | 3001 ft | 230 kts | 40° |
| 2026-05-05 11:52 | 48.17688 | 16.67617 | 2983 ft | 242 kts | 41° |
| 2026-05-05 11:52 | 48.19253 | 16.69311 | 2993 ft | 243 kts | 38° |
| 2026-05-05 11:53 | 48.20822 | 16.70277 | 2991 ft | 248 kts | 12° |
| 2026-05-05 11:53 | 48.22548 | 16.70568 | 2998 ft | 249 kts | 5° |
| 2026-05-05 11:53 | 48.24273 | 16.70473 | 2991 ft | 248 kts | 345° |
| 2026-05-05 11:53 | 48.25903 | 16.69691 | 2995 ft | 247 kts | 338° |
| 2026-05-05 11:54 | 48.27504 | 16.68738 | 2990 ft | 246 kts | 335° |
| 2026-05-05 11:54 | 48.28931 | 16.67448 | 2961 ft | 232 kts | 308° |
| 2026-05-05 11:54 | 48.29644 | 16.65474 | 2955 ft | 203 kts | 271° |
| 2026-05-05 11:54 | 48.29548 | 16.63453 | 2986 ft | 190 kts | 249° |
| 2026-05-05 11:55 | 48.29187 | 16.61555 | 2987 ft | 189 kts | 245° |
| 2026-05-05 11:55 | 48.28782 | 16.59691 | 2983 ft | 188 kts | 244° |
| 2026-05-05 11:55 | 48.28367 | 16.57825 | 2986 ft | 188 kts | 245° |
| 2026-05-05 11:55 | 48.27948 | 16.55964 | 2983 ft | 187 kts | 242° |
| 2026-05-05 11:56 | 48.27259 | 16.54388 | 2967 ft | 178 kts | 210° |
| 2026-05-05 11:56 | 48.26129 | 16.53704 | 2993 ft | 175 kts | 194° |
| 2026-05-05 11:56 | 48.24972 | 16.53174 | 2987 ft | 174 kts | 192° |
| 2026-05-05 11:56 | 48.23794 | 16.53040 | 2855 ft | 173 kts | 175° |
| 2026-05-05 11:57 | 48.22604 | 16.53355 | 2633 ft | 171 kts | 168° |
| 2026-05-05 11:57 | 48.21466 | 16.53802 | 2418 ft | 170 kts | 167° |
| 2026-05-05 11:57 | 48.20349 | 16.54278 | 2276 ft | 160 kts | 163° |
| 2026-05-05 11:57 | 48.19309 | 16.54726 | 2043 ft | 148 kts | 166° |
| 2026-05-05 11:58 | 48.18342 | 16.55136 | 1837 ft | 145 kts | 166° |
| 2026-05-05 11:58 | 48.17420 | 16.55524 | 1668 ft | 135 kts | 163° |
| 2026-05-05 11:58 | 48.16592 | 16.55873 | 1488 ft | 129 kts | 165° |
| 2026-05-05 11:58 | 48.15877 | 16.56172 | 1356 ft | 128 kts | 166° |
| 2026-05-05 11:59 | 48.15233 | 16.56445 | 1240 ft | 128 kts | 169° |
| 2026-05-05 11:59 | 48.14495 | 16.56742 | 1097 ft | 128 kts | 162° |
| 2026-05-05 11:59 | 48.13535 | 16.57141 | 930 ft | 127 kts | 162° |
| 2026-05-05 11:59 | 48.12777 | 16.57477 | 793 ft | 127 kts | 164° |
| 2026-05-05 12:00 | 48.11647 | 16.57965 | 618 ft | 119 kts | 166° |
| 2026-05-05 12:00 | 48.10945 | 16.58253 | 595 ft | 81 kts | 163° |
| 2026-05-05 12:00 | 48.10571 | 16.58412 | 599 ft | 33 kts | 163° |
| 2026-05-05 12:00 | 48.10386 | 16.58468 | 599 ft | 20 kts | 179° |
| 2026-05-05 12:01 | 48.10251 | 16.58445 | 599 ft | 18 kts | 192° |
| 2026-05-05 12:01 | 48.10145 | 16.58397 | 600 ft | 11 kts | 217° |
| 2026-05-05 12:01 | 48.10134 | 16.58329 | 602 ft | 6 kts | 294° |
| 2026-05-05 12:01 | 48.10183 | 16.58295 | 602 ft | 10 kts | 347° |
| 2026-05-05 12:02 | 48.10265 | 16.58263 | 603 ft | 14 kts | 345° |
| 2026-05-05 12:02 | 48.10377 | 16.58215 | 603 ft | 19 kts | 343° |
| 2026-05-05 12:02 | 48.10518 | 16.58158 | 601 ft | 21 kts | 344° |
| 2026-05-05 12:02 | 48.10661 | 16.58096 | 600 ft | 21 kts | 345° |
| 2026-05-05 12:03 | 48.10806 | 16.58034 | 598 ft | 22 kts | 344° |
| 2026-05-05 12:03 | 48.10945 | 16.57975 | 597 ft | 23 kts | 344° |
| 2026-05-05 12:03 | 48.11105 | 16.57907 | 595 ft | 21 kts | 345° |
| 2026-05-05 12:03 | 48.11249 | 16.57847 | 595 ft | 21 kts | 344° |
| 2026-05-05 12:04 | 48.11393 | 16.57785 | 595 ft | 21 kts | 345° |
| 2026-05-05 12:04 | 48.11538 | 16.57725 | 594 ft | 21 kts | 344° |
| 2026-05-05 12:04 | 48.11682 | 16.57663 | 595 ft | 21 kts | 345° |
| 2026-05-05 12:04 | 48.11801 | 16.57614 | 593 ft | 11 kts | 345° |
| 2026-05-05 12:05 | 48.11832 | 16.57531 | 592 ft | 10 kts | 257° |
| 2026-05-05 12:05 | 48.11812 | 16.57427 | 594 ft | 10 kts | 254° |
| 2026-05-05 12:05 | 48.11820 | 16.57322 | 596 ft | 11 kts | 295° |
| 2026-05-05 12:05 | 48.11853 | 16.57200 | 597 ft | 12 kts | 276° |
| 2026-05-05 12:06 | 48.11874 | 16.57078 | 598 ft | 12 kts | 296° |
| 2026-05-05 12:06 | 48.11900 | 16.56982 | 597 ft | 6 kts | 254° |
| 2026-05-05 12:06 | 48.11870 | 16.56952 | 598 ft | 3 kts | 198° |
| 2026-05-05 12:06 | 48.11856 | 16.56943 | 599 ft | 0 kts | 205° |
| 2026-05-05 12:07 | 48.11848 | 16.56937 | 599 ft | 3 kts | 205° |
| 2026-05-05 12:07 | 48.11845 | 16.56934 | 599 ft | 0 kts | 205° |